createdAt,value
2022-11-22T00:01:53.925Z,1.10
2022-11-22T00:05:54.318Z,1.00
2022-11-22T00:09:54.556Z,1.00
2022-11-22T00:13:54.672Z,0.90
2022-11-22T00:17:57.371Z,0.80
2022-11-22T00:21:57.478Z,0.80
2022-11-22T00:25:57.870Z,0.80
2022-11-22T00:29:58.009Z,0.80
2022-11-22T00:34:00.786Z,0.80
2022-11-22T00:38:00.860Z,0.80
2022-11-22T00:42:01.997Z,0.80
2022-11-22T00:46:02.958Z,0.80
2022-11-22T00:50:06.378Z,0.70
2022-11-22T00:54:06.771Z,0.70
2022-11-22T00:58:06.904Z,0.70
2022-11-22T01:02:07.050Z,0.70
2022-11-22T01:06:09.745Z,0.70
2022-11-22T01:10:11.631Z,0.80
2022-11-22T01:14:11.749Z,0.70
2022-11-22T01:18:11.889Z,0.70
2022-11-22T01:22:14.796Z,0.70
2022-11-22T01:26:16.113Z,0.80
2022-11-22T01:30:17.242Z,0.70
2022-11-22T01:34:17.568Z,0.70
2022-11-22T01:38:20.527Z,0.70
2022-11-22T01:42:20.827Z,0.70
2022-11-22T01:46:37.085Z,0.70
2022-11-22T01:50:42.638Z,0.70
2022-11-22T01:54:50.753Z,0.60
2022-11-22T01:58:59.791Z,0.60
2022-11-22T02:03:05.468Z,0.60
2022-11-22T02:07:13.878Z,0.60
2022-11-22T02:11:17.112Z,0.50
2022-11-22T02:15:17.621Z,0.50
2022-11-22T02:19:24.894Z,0.40
2022-11-22T02:23:37.908Z,0.50
2022-11-22T02:27:40.647Z,0.60
2022-11-22T02:31:45.436Z,0.70
2022-11-22T02:35:47.041Z,0.70
2022-11-22T02:39:51.064Z,0.80
2022-11-22T02:43:53.795Z,0.80
2022-11-22T02:47:53.873Z,0.70
2022-11-22T02:51:56.009Z,0.70
2022-11-22T02:55:56.093Z,0.60
2022-11-22T02:59:58.788Z,0.50
2022-11-22T03:03:58.904Z,0.50
2022-11-22T03:07:59.107Z,0.50
2022-11-22T03:11:59.512Z,0.40
2022-11-22T03:16:02.416Z,0.40
2022-11-22T03:20:02.597Z,0.40
2022-11-22T03:24:03.074Z,0.50
2022-11-22T03:28:03.200Z,0.60
2022-11-22T03:32:06.024Z,0.70
2022-11-22T03:36:07.468Z,0.70
2022-11-22T03:40:09.474Z,0.80
2022-11-22T03:44:10.154Z,0.90
2022-11-22T03:48:12.860Z,1.00
2022-11-22T03:52:13.051Z,1.10
2022-11-22T03:56:13.343Z,1.10
2022-11-22T04:00:15.848Z,1.10
2022-11-22T04:04:19.732Z,1.20
2022-11-22T04:08:20.030Z,1.20
2022-11-22T04:12:20.388Z,1.20
2022-11-22T04:16:20.707Z,1.30
2022-11-22T04:20:39.151Z,1.30
2022-11-22T04:24:51.772Z,1.30
2022-11-22T04:29:09.127Z,1.30
2022-11-22T04:33:10.105Z,1.30
2022-11-22T04:37:12.879Z,1.30
2022-11-22T04:41:13.257Z,1.30
2022-11-22T04:45:14.182Z,1.40
2022-11-22T04:49:14.346Z,1.40
2022-11-22T04:53:15.264Z,1.40
2022-11-22T04:57:15.404Z,1.40
2022-11-22T05:01:15.622Z,1.40
2022-11-22T05:05:15.802Z,1.50
2022-11-22T05:09:18.857Z,1.50
2022-11-22T05:13:19.019Z,1.50
2022-11-22T05:17:19.156Z,1.50
2022-11-22T05:21:19.254Z,1.50
2022-11-22T05:25:25.476Z,1.50
2022-11-22T05:29:26.072Z,1.50
2022-11-22T05:33:26.210Z,1.40
2022-11-22T05:37:26.848Z,1.50
2022-11-22T05:41:29.680Z,1.50
2022-11-22T05:45:30.048Z,1.50
2022-11-22T05:49:30.510Z,1.50
2022-11-22T05:53:30.762Z,1.50
2022-11-22T05:57:36.004Z,1.50
2022-11-22T06:01:36.169Z,1.50
2022-11-22T06:05:36.282Z,1.50
2022-11-22T06:09:36.453Z,1.50
2022-11-22T06:13:42.117Z,1.40
2022-11-22T06:17:42.307Z,1.50
2022-11-22T06:21:42.771Z,1.50
2022-11-22T06:25:43.141Z,1.50
2022-11-22T06:29:46.077Z,1.50
2022-11-22T06:33:47.332Z,1.60
2022-11-22T06:37:47.490Z,1.70
2022-11-22T06:41:47.927Z,1.70
2022-11-22T06:45:50.821Z,1.70
2022-11-22T06:49:50.976Z,1.70
2022-11-22T06:53:52.580Z,1.70
2022-11-22T06:57:53.801Z,1.70
2022-11-22T07:01:59.016Z,1.70
2022-11-22T07:06:03.154Z,1.70
2022-11-22T07:10:03.227Z,1.80
2022-11-22T07:14:08.749Z,1.80
2022-11-22T07:18:12.047Z,1.90
2022-11-22T07:22:12.169Z,1.90
2022-11-22T07:26:16.131Z,1.90
2022-11-22T07:30:17.978Z,1.90
2022-11-22T07:34:23.899Z,2.00
2022-11-22T07:38:59.329Z,2.00
2022-11-22T07:43:08.264Z,2.00
2022-11-22T07:47:08.411Z,2.10
2022-11-22T07:51:14.763Z,2.20
2022-11-22T07:55:14.890Z,2.20
2022-11-22T07:59:15.141Z,2.30
2022-11-22T08:03:17.794Z,2.30
2022-11-22T08:07:21.144Z,2.40
2022-11-22T08:11:21.515Z,2.40
2022-11-22T08:15:22.225Z,2.50
2022-11-22T08:19:22.683Z,2.60
2022-11-22T08:23:25.735Z,2.60
2022-11-22T08:27:27.803Z,2.70
2022-11-22T08:31:29.655Z,2.70
2022-11-22T08:35:30.104Z,2.70
2022-11-22T08:39:33.376Z,2.70
2022-11-22T08:43:33.787Z,2.70
2022-11-22T08:47:38.138Z,2.70
2022-11-22T08:51:45.506Z,2.90
2022-11-22T08:56:04.217Z,2.90
2022-11-22T09:00:04.626Z,3.20
2022-11-22T09:04:04.719Z,3.50
2022-11-22T09:12:27.763Z,3.70
2022-11-22T09:16:31.822Z,3.70
2022-11-22T09:20:32.575Z,3.70
2022-11-22T09:24:37.248Z,3.60
2022-11-22T09:28:40.729Z,3.50
2022-11-22T09:32:41.020Z,3.70
2022-11-22T09:36:44.389Z,3.70
2022-11-22T09:40:49.804Z,3.80
2022-11-22T09:45:31.344Z,3.90
2022-11-22T09:49:40.200Z,4.10
2022-11-22T09:53:49.381Z,4.30
2022-11-22T09:57:55.089Z,4.50
2022-11-22T10:02:18.226Z,4.80
2022-11-22T10:06:30.070Z,5.20
2022-11-22T10:10:41.317Z,5.60
2022-11-22T10:14:55.963Z,5.90
2022-11-22T10:19:06.964Z,6.20
2022-11-22T10:23:19.778Z,6.10
2022-11-22T10:27:20.007Z,5.90
2022-11-22T10:31:29.225Z,5.70
2022-11-22T10:35:54.198Z,5.60
2022-11-22T10:40:16.180Z,5.70
2022-11-22T10:44:37.367Z,5.70
2022-11-22T10:48:49.094Z,5.80
2022-11-22T10:53:07.871Z,5.90
2022-11-22T10:57:21.689Z,5.90
2022-11-22T11:01:36.109Z,6.00
2022-11-22T11:06:15.287Z,5.90
2022-11-22T11:20:52.149Z,5.90
2022-11-22T11:24:55.476Z,5.90
2022-11-22T11:29:41.642Z,6.00
2022-11-22T11:33:44.450Z,5.90
2022-11-22T11:37:44.682Z,6.20
2022-11-22T11:41:44.830Z,6.40
2022-11-22T11:45:47.738Z,6.50
2022-11-22T11:49:54.446Z,6.60
2022-11-22T11:54:03.841Z,6.80
2022-11-22T11:58:07.581Z,6.70
2022-11-22T12:02:18.836Z,6.70
2022-11-22T12:06:20.122Z,6.70
2022-11-22T12:10:46.811Z,6.70
2022-11-22T12:15:10.753Z,6.80
2022-11-22T12:19:27.543Z,7.00
2022-11-22T12:23:36.336Z,7.10
2022-11-22T12:27:36.671Z,7.00
2022-11-22T12:31:44.409Z,6.80
2022-11-22T12:35:49.466Z,6.60
2022-11-22T12:39:56.206Z,6.50
2022-11-22T12:44:02.690Z,6.40
2022-11-22T12:48:09.358Z,6.40
2022-11-22T12:52:26.425Z,6.40
2022-11-22T12:56:34.042Z,6.50
2022-11-22T13:00:44.694Z,6.60
2022-11-22T13:04:59.922Z,6.70
2022-11-22T13:09:08.312Z,6.70
2022-11-22T13:13:25.231Z,6.60
2022-11-22T13:17:30.778Z,6.60
2022-11-22T13:21:46.483Z,6.40
2022-11-22T13:26:14.555Z,6.30
2022-11-22T13:30:23.837Z,6.40
2022-11-22T13:34:29.380Z,6.30
2022-11-22T13:38:31.301Z,6.40
2022-11-22T13:42:35.032Z,6.60
2022-11-22T13:46:56.838Z,7.30
2022-11-22T13:51:06.516Z,7.70
2022-11-22T13:55:36.033Z,7.50
2022-11-22T13:59:46.605Z,7.10
2022-11-22T14:03:47.286Z,6.70
2022-11-22T14:07:52.159Z,6.50
2022-11-22T14:12:26.360Z,6.30
2022-11-22T14:16:53.587Z,6.10
2022-11-22T14:21:07.280Z,5.90
2022-11-22T14:25:33.378Z,5.70
2022-11-22T14:30:05.880Z,5.50
2022-11-22T14:34:27.658Z,5.40
2022-11-22T14:38:35.822Z,5.30
2022-11-22T14:42:55.786Z,5.30
2022-11-22T14:47:04.448Z,5.30
2022-11-22T14:51:18.175Z,5.30
2022-11-22T14:55:23.193Z,5.30
2022-11-22T15:00:03.187Z,5.30
2022-11-22T15:09:13.831Z,5.20
2022-11-22T15:09:52.945Z,5.10
2022-11-22T15:14:46.912Z,5.10
2022-11-22T15:59:03.865Z,4.80
2022-11-22T16:03:07.119Z,4.90
2022-11-22T16:07:10.286Z,4.90
2022-11-22T16:11:19.477Z,4.90
2022-11-22T16:15:36.342Z,4.80
2022-11-22T16:19:39.230Z,4.80
2022-11-22T16:23:40.979Z,4.80
2022-11-22T16:27:49.118Z,4.80
2022-11-22T16:31:49.843Z,4.80
2022-11-22T16:35:57.021Z,4.80
2022-11-22T16:39:57.236Z,4.80
2022-11-22T16:44:00.003Z,4.70
2022-11-22T16:48:24.537Z,4.70
2022-11-22T16:52:23.124Z,4.70
2022-11-22T16:56:26.600Z,4.80
2022-11-22T17:00:27.446Z,4.80
2022-11-22T17:04:28.272Z,4.70
2022-11-22T17:08:31.111Z,4.70
2022-11-22T17:12:33.820Z,4.60
2022-11-22T17:16:34.415Z,4.60
2022-11-22T17:20:34.760Z,4.60
2022-11-22T17:24:38.107Z,4.50
2022-11-22T17:28:38.518Z,4.50
2022-11-22T17:32:40.313Z,4.50
2022-11-22T17:36:40.898Z,4.40
2022-11-22T17:40:44.835Z,4.40
2022-11-22T17:44:44.985Z,4.30
2022-11-22T17:48:45.239Z,4.30
2022-11-22T17:52:45.364Z,4.30
2022-11-22T17:56:48.092Z,4.30
2022-11-22T18:00:48.208Z,4.20
2022-11-22T18:04:48.302Z,4.20
2022-11-22T18:08:48.721Z,4.20
2022-11-22T18:13:19.799Z,4.10
2022-11-22T18:17:12.182Z,4.10
2022-11-22T18:21:17.139Z,4.10
2022-11-22T18:25:18.007Z,4.10
2022-11-22T18:29:42.098Z,4.10
2022-11-22T18:33:40.862Z,4.10
2022-11-22T18:37:41.542Z,4.10
2022-11-22T18:41:47.091Z,4.00
2022-11-22T18:45:49.937Z,4.00
2022-11-22T18:49:50.940Z,4.00
2022-11-22T18:53:51.242Z,4.00
2022-11-22T18:57:53.940Z,4.00
2022-11-22T19:01:56.953Z,4.00
2022-11-22T19:05:57.126Z,3.90
2022-11-22T19:09:57.364Z,3.90
2022-11-22T19:13:57.627Z,3.90
2022-11-22T19:18:00.471Z,3.90
2022-11-22T19:22:00.670Z,3.90
2022-11-22T19:26:00.969Z,3.90
2022-11-22T19:30:01.200Z,3.90
2022-11-22T19:34:04.158Z,3.90
2022-11-22T19:38:04.358Z,3.90
2022-11-22T19:42:04.585Z,3.90
2022-11-22T19:46:05.453Z,3.90
2022-11-22T19:50:09.371Z,4.00
2022-11-22T19:54:10.741Z,3.90
2022-11-22T19:58:11.018Z,3.90
2022-11-22T20:02:13.586Z,4.00
2022-11-22T20:06:17.317Z,4.00
2022-11-22T20:10:18.782Z,4.00
2022-11-22T20:14:19.137Z,4.00
2022-11-22T20:18:19.353Z,4.10
2022-11-22T20:22:22.165Z,4.10
2022-11-22T20:26:25.308Z,4.10
2022-11-22T20:30:25.474Z,4.00
2022-11-22T20:34:26.073Z,4.00
2022-11-22T20:38:28.958Z,4.00
2022-11-22T20:42:36.456Z,4.00
2022-11-22T20:46:40.511Z,4.10
2022-11-22T20:50:40.830Z,4.10
2022-11-22T20:54:43.656Z,4.10
2022-11-22T20:58:44.153Z,4.00
2022-11-22T21:02:44.459Z,4.10
2022-11-22T21:06:44.665Z,4.10
2022-11-22T21:10:47.551Z,4.10
2022-11-22T21:14:51.322Z,4.10
2022-11-22T21:18:54.419Z,4.10
2022-11-22T21:22:56.506Z,4.10
2022-11-22T21:26:59.262Z,4.10
2022-11-22T21:31:00.410Z,4.10
2022-11-22T21:35:00.808Z,4.10
2022-11-22T21:39:01.245Z,4.10
2022-11-22T21:43:04.061Z,4.20
2022-11-22T21:47:04.828Z,4.20
2022-11-22T21:51:13.577Z,4.20
2022-11-22T21:55:22.627Z,4.20
2022-11-22T21:59:25.756Z,4.20
2022-11-22T22:03:27.440Z,4.20
2022-11-22T22:07:51.528Z,4.10
2022-11-22T22:11:49.063Z,4.10
2022-11-22T22:15:52.099Z,4.20
2022-11-22T22:19:52.501Z,4.20
2022-11-22T22:23:53.577Z,4.20
2022-11-22T22:27:53.944Z,4.10
2022-11-22T22:31:56.804Z,4.10
2022-11-22T22:35:59.868Z,4.10
2022-11-22T22:40:20.572Z,4.10
2022-11-22T22:44:23.389Z,4.00
2022-11-22T22:48:26.689Z,4.10
2022-11-22T22:52:27.367Z,4.00
2022-11-22T22:56:28.178Z,4.00
2022-11-22T23:00:28.556Z,4.00
2022-11-22T23:04:31.723Z,4.00
2022-11-22T23:08:31.878Z,4.00
2022-11-22T23:12:32.191Z,4.00
2022-11-22T23:16:32.554Z,4.00
2022-11-22T23:20:35.284Z,4.00
2022-11-22T23:24:36.303Z,4.00
2022-11-22T23:28:36.756Z,4.00
2022-11-22T23:32:37.013Z,4.00
2022-11-22T23:36:41.233Z,4.00
2022-11-22T23:40:41.498Z,4.00
2022-11-22T23:44:41.855Z,3.90
2022-11-22T23:48:41.988Z,3.90
2022-11-22T23:52:44.668Z,3.90
2022-11-22T23:56:45.469Z,3.90
